Time;durP1;ratioP1;P1;durP2;ratioP2;P2;SDS_P1;SDS_P2;PMS_P1;PMS_P2;Temp;Humidity;BMP_temperature;BMP_pressure;BME280_temperature;BME280_humidity;BME280_pressure;Samples;Min_cycle;Max_cycle;Signal;HPM_P1;HPM_P2
2021/01/09 00:00:31;;;;;;;;;;;;;;;20.46;32.80;100350.56;5038314;28;19925;-58
2021/01/09 00:02:57;;;;;;;;;;;;;;;20.47;32.46;100352.22;5036253;28;20437;-59
2021/01/09 00:05:24;;;;;;;;;;;;;;;20.49;32.89;100349.19;5033268;28;19929;-58
2021/01/09 00:07:50;;;;;;;;;;;;;;;20.51;32.67;100350.56;5018440;28;20442;-58
2021/01/09 00:10:16;;;;;;;;;;;;;;;20.50;32.62;100351.69;5032107;28;19944;-58
2021/01/09 00:12:42;;;;;;;;;;;;;;;20.49;32.85;100355.56;5013342;28;19947;-59
2021/01/09 00:15:09;;;;;;;;;;;;;;;20.50;32.79;100354.44;5014822;28;20008;-59
2021/01/09 00:17:35;;;;;;;;;;;;;;;20.51;32.64;100369.13;5015478;28;19932;-57
2021/01/09 00:20:06;;;;;;;;;;;;;;;20.48;32.78;100362.22;5015167;28;19954;-58
2021/01/09 00:22:32;;;;;;;;;;;;;;;20.48;32.68;100364.97;5033502;28;19925;-58
2021/01/09 00:24:59;;;;;;;;;;;;;;;20.47;32.83;100363.31;5023202;28;20047;-58
2021/01/09 00:27:26;;;;;;;;;;;;;;;20.46;32.79;100367.19;5033036;28;20015;-58
2021/01/09 00:29:53;;;;;;;;;;;;;;;20.45;32.69;100373.84;5031528;28;19925;-59
2021/01/09 00:32:19;;;;;;;;;;;;;;;20.45;32.79;100373.84;5032910;28;19972;-59
2021/01/09 00:34:45;;;;;;;;;;;;;;;20.44;32.82;100363.06;5022908;28;19929;-58
2021/01/09 00:37:12;;;;;;;;;;;;;;;20.44;32.80;100369.44;5011436;28;19925;-57
2021/01/09 00:39:38;;;;;;;;;;;;;;;20.48;32.79;100369.69;5031683;28;19925;-59
2021/01/09 00:42:04;;;;;;;;;;;;;;;20.49;32.96;100376.88;5031326;28;19964;-58
2021/01/09 00:44:30;;;;;;;;;;;;;;;20.46;32.96;100382.97;5011263;28;19933;-58
2021/01/09 00:46:57;;;;;;;;;;;;;;;20.46;32.68;100383.78;5042884;28;19988;-58
2021/01/09 00:49:23;;;;;;;;;;;;;;;20.44;32.67;100380.50;5019565;28;19929;-58
2021/01/09 00:51:49;;;;;;;;;;;;;;;20.49;32.96;100376.88;5032793;28;19957;-58
2021/01/09 00:54:16;;;;;;;;;;;;;;;20.51;32.85;100383.81;5025422;28;20364;-58
2021/01/09 00:56:42;;;;;;;;;;;;;;;20.48;32.57;100381.59;5032481;28;20002;-58
2021/01/09 00:59:08;;;;;;;;;;;;;;;20.49;32.96;100380.47;5032599;28;19925;-58
2021/01/09 01:01:34;;;;;;;;;;;;;;;20.50;32.56;100376.59;5034607;28;19925;-58
2021/01/09 01:04:01;;;;;;;;;;;;;;;20.49;32.66;100374.09;5042345;28;20197;-58
2021/01/09 01:06:27;;;;;;;;;;;;;;;20.51;32.72;100381.03;5033274;28;20004;-58
2021/01/09 01:08:54;;;;;;;;;;;;;;;20.55;32.47;100382.13;5032191;28;19925;-58
2021/01/09 01:11:24;;;;;;;;;;;;;;;20.56;32.69;100382.97;5032247;28;20421;-58
2021/01/09 01:13:51;;;;;;;;;;;;;;;20.56;32.36;100389.34;5029156;28;19933;-58
2021/01/09 01:16:18;;;;;;;;;;;;;;;20.55;32.53;100390.44;5051811;22;19992;-66
2021/01/09 01:18:44;;;;;;;;;;;;;;;20.55;32.47;100384.91;5025993;28;19928;-66
2021/01/09 01:21:10;;;;;;;;;;;;;;;20.56;32.54;100391.28;5039967;28;20401;-66
2021/01/09 01:23:37;;;;;;;;;;;;;;;20.56;32.35;100399.59;5052539;28;19932;-67
2021/01/09 01:26:04;;;;;;;;;;;;;;;20.58;32.74;100394.59;5064109;28;19931;-67
2021/01/09 01:28:31;;;;;;;;;;;;;;;20.57;32.66;100396.53;5046465;28;19925;-67
2021/01/09 01:30:57;;;;;;;;;;;;;;;20.56;32.42;100399.59;5053957;28;19964;-67
2021/01/09 01:33:23;;;;;;;;;;;;;;;20.57;32.53;100406.78;5071149;28;19982;-67
2021/01/09 01:35:49;;;;;;;;;;;;;;;20.57;32.34;100401.25;5050801;28;19928;-67
2021/01/09 01:38:17;;;;;;;;;;;;;;;20.58;32.64;100405.69;5067539;28;19947;-67
2021/01/09 01:40:44;;;;;;;;;;;;;;;20.57;32.67;100393.78;5052942;28;19950;-66
2021/01/09 01:43:10;;;;;;;;;;;;;;;20.57;32.56;100387.41;5036540;28;20348;-66
2021/01/09 01:45:37;;;;;;;;;;;;;;;20.57;32.50;100396.53;5036416;28;19951;-67
2021/01/09 01:48:05;;;;;;;;;;;;;;;20.56;32.26;100389.34;5053431;28;19931;-67
2021/01/09 01:50:31;;;;;;;;;;;;;;;20.57;32.63;100388.25;5035954;28;19970;-67
2021/01/09 01:52:58;;;;;;;;;;;;;;;20.55;32.61;100387.69;5053051;28;19924;-67
2021/01/09 01:55:24;;;;;;;;;;;;;;;20.55;32.54;100390.44;5047948;28;20019;-67
2021/01/09 01:57:50;;;;;;;;;;;;;;;20.51;32.72;100392.09;5050707;28;19924;-67
2021/01/09 02:00:17;;;;;;;;;;;;;;;20.55;32.49;100387.69;5028109;28;19925;-66
2021/01/09 02:02:43;;;;;;;;;;;;;;;20.58;32.47;100394.59;5044044;28;20015;-67
2021/01/09 02:05:09;;;;;;;;;;;;;;;20.59;32.48;100397.09;5053035;28;19974;-66
2021/01/09 02:07:39;;;;;;;;;;;;;;;20.61;32.49;100399.59;5050576;28;19925;-66
2021/01/09 02:10:06;;;;;;;;;;;;;;;20.62;32.59;100404.84;5020162;28;19924;-66
2021/01/09 02:12:37;;;;;;;;;;;;;;;20.61;32.47;100396.81;5052546;28;20019;-66
2021/01/09 02:15:03;;;;;;;;;;;;;;;20.61;32.41;100408.72;5020373;28;19935;-65
2021/01/09 02:17:30;;;;;;;;;;;;;;;20.59;32.50;100405.41;5019632;28;20356;-66
2021/01/09 02:19:58;;;;;;;;;;;;;;;20.57;32.37;100409.56;5043979;28;19925;-65
2021/01/09 02:22:24;;;;;;;;;;;;;;;20.58;32.32;100416.75;5052790;28;19975;-65
2021/01/09 02:24:50;;;;;;;;;;;;;;;20.59;32.77;100410.94;5040473;28;19925;-66
2021/01/09 02:27:16;;;;;;;;;;;;;;;20.63;32.57;100406.50;5049046;28;19925;-66
2021/01/09 02:29:53;;;;;;;;;;;;;;;20.67;32.57;100407.63;5044440;28;19978;-65
2021/01/09 02:32:19;;;;;;;;;;;;;;;20.70;32.36;100407.06;5035891;28;19936;-66
2021/01/09 02:34:50;;;;;;;;;;;;;;;20.71;31.94;100403.19;5053050;28;20364;-66
2021/01/09 02:37:17;;;;;;;;;;;;;;;20.70;31.93;100407.06;5049616;28;19960;-66
2021/01/09 02:39:43;;;;;;;;;;;;;;;20.68;31.62;100405.69;5051977;28;20023;-66
2021/01/09 02:42:09;;;;;;;;;;;;;;;20.66;31.50;100410.66;5050523;28;20313;-66
2021/01/09 02:44:36;;;;;;;;;;;;;;;20.63;31.65;100412.06;5035575;28;20139;-65
2021/01/09 02:47:03;;;;;;;;;;;;;;;20.62;31.83;100415.09;5052146;28;19960;-65
2021/01/09 02:49:30;;;;;;;;;;;;;;;20.60;31.72;100412.59;5051986;28;19928;-65
2021/01/09 02:51:56;;;;;;;;;;;;;;;20.60;31.45;100409.84;5035838;28;19939;-64
2021/01/09 02:54:22;;;;;;;;;;;;;;;20.60;31.69;100409.84;5050060;28;19955;-64
2021/01/09 02:56:49;;;;;;;;;;;;;;;20.59;31.72;100413.72;5052526;28;19951;-65
2021/01/09 02:59:15;;;;;;;;;;;;;;;20.57;31.80;100421.47;5052419;28;19925;-65
2021/01/09 03:01:42;;;;;;;;;;;;;;;20.58;31.58;100416.75;5055248;28;19950;-65
2021/01/09 03:04:08;;;;;;;;;;;;;;;20.55;31.54;100418.16;5056727;28;19930;-65
2021/01/09 03:06:34;;;;;;;;;;;;;;;20.54;31.45;100415.66;5048194;28;19924;-65
2021/01/09 03:09:01;;;;;;;;;;;;;;;20.53;31.63;100416.75;5039065;28;19924;-65
2021/01/09 03:11:28;;;;;;;;;;;;;;;20.54;31.34;100421.19;5073333;28;20065;-65
2021/01/09 03:13:54;;;;;;;;;;;;;;;20.56;31.40;100422.56;5073452;28;19924;-65
2021/01/09 03:16:21;;;;;;;;;;;;;;;20.55;31.43;100423.69;5073112;28;19924;-65
2021/01/09 03:18:47;;;;;;;;;;;;;;;20.52;31.41;100418.69;5072924;28;19931;-66
2021/01/09 03:21:13;;;;;;;;;;;;;;;20.48;31.17;100425.88;5055263;28;20314;-65
2021/01/09 03:23:39;;;;;;;;;;;;;;;20.47;31.43;100421.47;5053768;28;19952;-65
2021/01/09 03:26:06;;;;;;;;;;;;;;;20.46;31.37;100419.78;5072078;28;19970;-65
2021/01/09 03:28:32;;;;;;;;;;;;;;;20.47;31.19;100421.47;5071143;28;20390;-65
2021/01/09 03:30:58;;;;;;;;;;;;;;;20.47;31.20;100424.22;5054997;28;19956;-64
2021/01/09 03:33:25;;;;;;;;;;;;;;;20.45;31.15;100420.91;5073003;28;20012;-65
2021/01/09 03:35:51;;;;;;;;;;;;;;;20.44;31.28;100419.28;5054919;28;19932;-65
2021/01/09 03:38:18;;;;;;;;;;;;;;;20.43;31.56;100423.16;5038310;28;19935;-65
2021/01/09 03:40:44;;;;;;;;;;;;;;;20.44;31.39;100430.34;5073078;28;19925;-65
2021/01/09 03:43:10;;;;;;;;;;;;;;;20.46;31.38;100422.56;5038875;28;19935;-65
2021/01/09 03:45:36;;;;;;;;;;;;;;;20.43;31.07;100425.91;5054877;28;20369;-65
2021/01/09 03:48:03;;;;;;;;;;;;;;;20.44;31.20;100427.56;5055112;28;19947;-65
2021/01/09 03:50:29;;;;;;;;;;;;;;;20.43;31.36;100420.38;5072594;28;20437;-66
2021/01/09 03:52:55;;;;;;;;;;;;;;;20.44;31.14;100430.34;5038435;28;19974;-65
2021/01/09 03:55:22;;;;;;;;;;;;;;;20.44;30.95;100424.81;5048448;28;20419;-65
2021/01/09 03:57:48;;;;;;;;;;;;;;;20.43;30.79;100434.22;5037631;28;19924;-65
2021/01/09 04:00:15;;;;;;;;;;;;;;;20.44;30.55;100430.34;5021705;28;19932;-65
2021/01/09 04:02:41;;;;;;;;;;;;;;;20.44;30.67;100435.88;5038011;28;19948;-65
2021/01/09 04:05:08;;;;;;;;;;;;;;;20.40;30.53;100430.06;5038146;28;19971;-65
2021/01/09 04:07:34;;;;;;;;;;;;;;;20.36;30.61;100426.16;5053322;28;20354;-65
2021/01/09 04:10:01;;;;;;;;;;;;;;;20.37;30.65;100432.50;5054811;28;19925;-65
2021/01/09 04:12:27;;;;;;;;;;;;;;;20.35;30.67;100431.97;5037594;28;19978;-65
2021/01/09 04:14:53;;;;;;;;;;;;;;;20.33;30.50;100428.63;5042465;28;19934;-66
2021/01/09 04:17:19;;;;;;;;;;;;;;;20.32;30.49;100424.19;5072801;28;19975;-65
2021/01/09 04:19:46;;;;;;;;;;;;;;;20.32;30.59;100426.97;5058382;28;20035;-66
2021/01/09 04:22:13;;;;;;;;;;;;;;;20.31;30.74;100428.91;5043909;28;19924;-65
2021/01/09 04:24:40;;;;;;;;;;;;;;;20.30;30.45;100429.19;5071457;28;20405;-65
2021/01/09 04:27:06;;;;;;;;;;;;;;;20.27;30.68;100429.72;5053946;28;19924;-66
2021/01/09 04:29:33;;;;;;;;;;;;;;;20.24;30.60;100425.56;5068523;28;19987;-65
2021/01/09 04:31:59;;;;;;;;;;;;;;;20.25;30.70;100431.94;5037336;28;20374;-64
2021/01/09 04:34:26;;;;;;;;;;;;;;;20.21;30.64;100430.81;5020984;28;19930;-65
2021/01/09 04:36:53;;;;;;;;;;;;;;;20.21;30.57;100425.28;5053666;28;19936;-64
2021/01/09 04:39:19;;;;;;;;;;;;;;;20.19;30.37;100433.03;5037389;28;19929;-65
2021/01/09 04:41:45;;;;;;;;;;;;;;;20.20;30.41;100430.00;5071855;28;19924;-66
2021/01/09 04:44:12;;;;;;;;;;;;;;;20.20;30.31;100440.22;5071396;28;19979;-66
2021/01/09 04:46:54;;;;;;;;;;;;;;;20.17;30.47;100433.31;5037242;28;19925;-65
2021/01/09 04:49:22;;;;;;;;;;;;;;;20.19;30.63;100435.78;5053597;28;19925;-66
2021/01/09 04:51:48;;;;;;;;;;;;;;;20.20;30.44;100438.28;5053725;28;20118;-65
2021/01/09 04:54:15;;;;;;;;;;;;;;;20.22;30.33;100429.72;5069747;28;19947;-65
2021/01/09 04:56:46;;;;;;;;;;;;;;;20.24;30.42;100441.34;5021208;28;20412;-65
2021/01/09 04:59:12;;;;;;;;;;;;;;;20.23;30.32;100440.50;5036182;28;20015;-64
2021/01/09 05:01:43;;;;;;;;;;;;;;;20.25;30.41;100443.84;5054047;28;20031;-64
2021/01/09 05:04:10;;;;;;;;;;;;;;;20.26;30.22;100441.91;5053831;28;19963;-65
2021/01/09 05:06:36;;;;;;;;;;;;;;;20.25;30.21;100446.59;5052884;28;20036;-65
2021/01/09 05:09:03;;;;;;;;;;;;;;;20.25;30.33;100445.78;5037624;28;19925;-65
2021/01/09 05:11:33;;;;;;;;;;;;;;;20.24;30.32;100444.94;5054062;28;19925;-65
2021/01/09 05:14:00;;;;;;;;;;;;;;;20.25;30.05;100443.00;5037077;28;19925;-66
2021/01/09 05:16:27;;;;;;;;;;;;;;;20.23;30.13;100450.75;5037028;28;20402;-66
2021/01/09 05:18:53;;;;;;;;;;;;;;;20.20;30.15;100454.06;5053866;28;19925;-65
2021/01/09 05:21:20;;;;;;;;;;;;;;;20.18;30.22;100462.63;5071341;28;19928;-65
2021/01/09 05:23:53;;;;;;;;;;;;;;;20.16;30.08;100464.00;5052559;28;20406;-66
2021/01/09 05:26:22;;;;;;;;;;;;;;;20.14;30.29;100458.75;5037041;28;19968;-65
2021/01/09 05:28:49;;;;;;;;;;;;;;;20.12;30.28;100462.91;5045929;28;19990;-67
2021/01/09 05:31:17;;;;;;;;;;;;;;;20.08;30.35;100473.72;5053249;28;20396;-65
2021/01/09 05:33:43;;;;;;;;;;;;;;;20.07;30.43;100472.88;5036863;28;19924;-65
2021/01/09 05:36:10;;;;;;;;;;;;;;;20.07;30.28;100475.63;5047825;28;19936;-65
2021/01/09 05:38:37;;;;;;;;;;;;;;;20.05;30.34;100477.84;5033345;28;20386;-66
2021/01/09 05:41:07;;;;;;;;;;;;;;;20.07;30.29;100481.19;5052062;28;19925;-65
2021/01/09 05:43:33;;;;;;;;;;;;;;;20.07;30.38;100474.81;5036835;28;20395;-65
2021/01/09 05:46:00;;;;;;;;;;;;;;;20.09;30.36;100478.13;5052936;28;20353;-66
2021/01/09 05:48:27;;;;;;;;;;;;;;;20.13;30.04;100484.75;5053617;28;20406;-65
2021/01/09 05:50:54;;;;;;;;;;;;;;;20.14;30.13;100486.44;5052721;28;19969;-66
2021/01/09 05:53:35;;;;;;;;;;;;;;;20.15;29.94;100478.97;5036538;28;20015;-65
2021/01/09 05:56:03;;;;;;;;;;;;;;;20.15;29.96;100485.31;5047819;28;19932;-66
2021/01/09 05:58:29;;;;;;;;;;;;;;;20.14;30.15;100485.59;5033514;28;20394;-66
2021/01/09 06:00:56;;;;;;;;;;;;;;;20.12;30.03;100493.34;5036910;28;19928;-66
2021/01/09 06:03:23;;;;;;;;;;;;;;;20.14;30.12;100499.44;5004298;28;20144;-66
2021/01/09 06:05:49;;;;;;;;;;;;;;;20.12;30.16;100496.94;5017930;28;20412;-65
2021/01/09 06:08:18;;;;;;;;;;;;;;;20.12;29.86;100501.63;5047700;28;19924;-66
2021/01/09 06:10:45;;;;;;;;;;;;;;;20.08;30.01;100504.97;5052921;28;20439;-64
2021/01/09 06:13:11;;;;;;;;;;;;;;;20.07;29.98;100502.47;5036340;28;20431;-65
2021/01/09 06:15:42;;;;;;;;;;;;;;;20.09;29.69;100503.03;5053600;28;19931;-65
2021/01/09 06:18:09;;;;;;;;;;;;;;;20.06;30.08;100507.19;5052974;28;19925;-65
2021/01/09 06:20:36;;;;;;;;;;;;;;;20.06;30.07;100507.19;5049284;28;19928;-65
2021/01/09 06:23:02;;;;;;;;;;;;;;;20.04;30.15;100509.38;5061261;28;19924;-65
2021/01/09 06:25:29;;;;;;;;;;;;;;;20.07;30.12;100519.09;5052400;28;19931;-65
2021/01/09 06:27:56;;;;;;;;;;;;;;;20.06;30.02;100517.41;5017425;28;20383;-65
2021/01/09 06:30:23;;;;;;;;;;;;;;;20.08;29.91;100520.75;5050611;28;20368;-65
2021/01/09 06:32:58;;;;;;;;;;;;;;;20.07;29.99;100519.09;5036216;28;19972;-65
2021/01/09 06:35:24;;;;;;;;;;;;;;;20.06;30.06;100520.19;5071241;28;19929;-65
2021/01/09 06:37:51;;;;;;;;;;;;;;;20.07;29.85;100519.09;5065693;28;19964;-66
2021/01/09 06:40:17;;;;;;;;;;;;;;;20.06;29.98;100529.31;5057422;28;20019;-66
2021/01/09 06:42:43;;;;;;;;;;;;;;;20.06;29.95;100523.78;5057586;28;20028;-65
2021/01/09 06:45:09;;;;;;;;;;;;;;;20.06;29.86;100518.25;5056902;28;20018;-65
2021/01/09 06:47:36;;;;;;;;;;;;;;;20.05;29.92;100533.19;5056504;28;20417;-65
2021/01/09 06:50:35;;;;;;;;;;;;;;;20.08;29.84;100531.81;5073085;28;19928;-65
2021/01/09 06:53:01;;;;;;;;;;;;;;;20.06;29.87;100529.31;5039884;28;19924;-65
2021/01/09 06:55:37;;;;;;;;;;;;;;;20.05;30.06;100527.66;5044416;28;19924;-65
2021/01/09 06:58:04;;;;;;;;;;;;;;;20.07;29.78;100530.16;5074060;28;19924;-64
2021/01/09 07:00:30;;;;;;;;;;;;;;;20.06;29.82;100534.84;5056162;28;19928;-65
2021/01/09 07:03:09;;;;;;;;;;;;;;;20.05;29.75;100537.88;5056585;28;20452;-65
2021/01/09 07:05:43;;;;;;;;;;;;;;;20.05;29.99;100532.34;5039293;28;20180;-65
2021/01/09 07:08:09;;;;;;;;;;;;;;;20.06;29.86;100540.38;5050307;28;20008;-65
2021/01/09 07:10:46;;;;;;;;;;;;;;;20.06;29.85;100537.63;5039567;28;20337;-64
2021/01/09 07:13:13;;;;;;;;;;;;;;;20.06;29.93;100545.91;5039500;28;19924;-64
2021/01/09 07:15:39;;;;;;;;;;;;;;;20.07;30.02;100549.53;5023237;28;19931;-65
2021/01/09 07:18:06;;;;;;;;;;;;;;;20.06;29.70;100545.91;5053713;22;19925;-58
2021/01/09 07:20:34;;;;;;;;;;;;;;;20.07;29.81;100550.34;5049519;28;19929;-58
2021/01/09 07:23:01;;;;;;;;;;;;;;;20.09;29.84;100550.09;5020359;28;19925;-59
2021/01/09 07:25:31;;;;;;;;;;;;;;;20.08;29.76;100551.19;5054463;28;19925;-58
2021/01/09 07:27:58;;;;;;;;;;;;;;;20.10;29.87;100559.22;5054285;28;19963;-58
2021/01/09 07:30:25;;;;;;;;;;;;;;;20.10;29.85;100550.91;5037541;28;19960;-59
2021/01/09 07:32:52;;;;;;;;;;;;;;;20.10;29.75;100556.44;5054850;28;19956;-59
2021/01/09 07:35:28;;;;;;;;;;;;;;;20.08;29.62;100560.31;5036777;28;19925;-59
2021/01/09 07:37:55;;;;;;;;;;;;;;;20.08;29.66;100563.09;5035416;28;20023;-59
2021/01/09 07:40:22;;;;;;;;;;;;;;;20.10;29.76;100578.59;5035844;28;19931;-58
2021/01/09 07:42:49;;;;;;;;;;;;;;;20.13;29.98;100576.09;5053850;28;19925;-58
2021/01/09 07:45:16;;;;;;;;;;;;;;;20.15;30.06;100575.81;5036245;28;19951;-60
2021/01/09 07:47:43;;;;;;;;;;;;;;;20.13;29.78;100578.84;5052718;28;19968;-60
2021/01/09 07:50:10;;;;;;;;;;;;;;;20.15;30.15;100581.34;5036057;28;19967;-59
2021/01/09 07:52:36;;;;;;;;;;;;;;;20.10;29.89;100576.63;5053579;28;19925;-58
2021/01/09 07:55:04;;;;;;;;;;;;;;;20.09;29.76;100577.75;5036053;28;20074;-59
2021/01/09 07:57:33;;;;;;;;;;;;;;;20.08;29.67;100579.69;5036224;28;19925;-58
2021/01/09 08:00:02;;;;;;;;;;;;;;;20.10;29.63;100584.94;5053315;28;19931;-58
2021/01/09 08:02:34;;;;;;;;;;;;;;;20.13;29.76;100589.91;5053337;28;19963;-58
2021/01/09 08:05:03;;;;;;;;;;;;;;;20.17;29.75;100595.75;5049554;28;20019;-59
2021/01/09 08:07:30;;;;;;;;;;;;;;;20.18;29.75;100591.88;5043800;28;19925;-61
2021/01/09 08:09:56;;;;;;;;;;;;;;;20.20;29.52;100593.28;5052977;28;19978;-58
2021/01/09 08:12:27;;;;;;;;;;;;;;;20.19;29.63;100593.56;5053300;28;20059;-61
2021/01/09 08:14:56;;;;;;;;;;;;;;;20.20;29.39;100609.06;5053792;28;20019;-58
2021/01/09 08:17:23;;;;;;;;;;;;;;;20.22;30.09;100606.84;5052659;28;19971;-58
2021/01/09 08:19:49;;;;;;;;;;;;;;;20.26;29.83;100605.22;5052748;28;20020;-58
2021/01/09 08:22:16;;;;;;;;;;;;;;;20.27;29.83;100606.88;5035009;28;20373;-58
2021/01/09 08:24:42;;;;;;;;;;;;;;;20.30;29.95;100614.66;5053197;28;20305;-59
2021/01/09 08:27:09;;;;;;;;;;;;;;;20.30;29.77;100617.41;5053105;28;19925;-59
2021/01/09 08:29:36;;;;;;;;;;;;;;;20.34;29.88;100619.38;5052587;28;20457;-59
2021/01/09 08:32:03;;;;;;;;;;;;;;;20.35;29.72;100615.50;5052523;28;19924;-59
2021/01/09 08:34:29;;;;;;;;;;;;;;;20.33;29.83;100625.19;5034915;28;19925;-59
2021/01/09 08:36:58;;;;;;;;;;;;;;;20.35;29.88;100628.50;5023365;28;20147;-59
2021/01/09 08:39:25;;;;;;;;;;;;;;;20.36;29.79;100630.19;5034316;28;19967;-58
2021/01/09 08:41:51;;;;;;;;;;;;;;;20.35;29.81;100628.50;5019478;28;19931;-59
2021/01/09 08:44:18;;;;;;;;;;;;;;;20.37;29.51;100634.59;5053597;28;20207;-58
2021/01/09 08:46:44;;;;;;;;;;;;;;;20.38;29.75;100650.16;5052482;28;19925;-59
2021/01/09 08:49:25;;;;;;;;;;;;;;;20.37;29.55;100645.69;5034365;28;20390;-58
2021/01/09 08:51:52;;;;;;;;;;;;;;;20.38;29.66;100645.44;5052181;28;19955;-58
2021/01/09 08:54:19;;;;;;;;;;;;;;;20.39;29.61;100644.34;5052327;28;20386;-59
2021/01/09 08:56:45;;;;;;;;;;;;;;;20.39;29.53;100654.59;5034738;28;19986;-58
2021/01/09 08:59:12;;;;;;;;;;;;;;;20.38;29.45;100658.47;5034725;28;19925;-59
2021/01/09 09:01:40;;;;;;;;;;;;;;;20.40;29.58;100656.25;5034701;28;19929;-58
2021/01/09 09:04:06;;;;;;;;;;;;;;;20.43;29.73;100655.72;5035248;28;19925;-59
2021/01/09 09:06:36;;;;;;;;;;;;;;;20.43;29.56;100660.41;5025162;28;19931;-59
2021/01/09 09:09:02;;;;;;;;;;;;;;;20.41;29.70;100657.91;5036391;28;19925;-59
2021/01/09 09:11:29;;;;;;;;;;;;;;;20.40;29.71;100665.41;5053672;28;19924;-57
2021/01/09 09:14:08;;;;;;;;;;;;;;;20.42;29.78;100665.13;5036083;28;20391;-60
2021/01/09 09:16:35;;;;;;;;;;;;;;;20.45;29.75;100661.78;5036040;28;20379;-58
2021/01/09 09:19:08;;;;;;;;;;;;;;;20.47;29.78;100661.50;5052000;28;19924;-59
2021/01/09 09:21:34;;;;;;;;;;;;;;;20.51;29.61;100671.78;5018213;28;19935;-59
2021/01/09 09:24:01;;;;;;;;;;;;;;;20.49;29.62;100667.63;5034702;28;19932;-59
2021/01/09 09:26:31;;;;;;;;;;;;;;;20.47;29.52;100667.88;5052110;28;19925;-58
2021/01/09 09:28:59;;;;;;;;;;;;;;;20.45;29.52;100672.84;5051580;28;19963;-59
2021/01/09 09:31:30;;;;;;;;;;;;;;;20.43;29.47;100669.56;5052545;28;19925;-59
2021/01/09 09:34:15;;;;;;;;;;;;;;;20.44;29.65;100678.69;5044681;28;20391;-59
2021/01/09 09:36:47;;;;;;;;;;;;;;;20.40;29.51;100682.00;5023063;28;19929;-58
2021/01/09 09:39:18;;;;;;;;;;;;;;;20.40;29.70;100683.94;5052178;28;20015;-59
2021/01/09 09:41:54;;;;;;;;;;;;;;;20.41;29.61;100682.84;5052672;28;20137;-59
2021/01/09 09:44:21;;;;;;;;;;;;;;;20.41;29.45;100677.31;5055158;28;19956;-61
2021/01/09 09:46:49;;;;;;;;;;;;;;;20.43;29.83;100677.88;5056169;28;20015;-59
2021/01/09 09:49:15;;;;;;;;;;;;;;;20.44;29.82;100682.31;5054348;28;19925;-59
2021/01/09 09:51:41;;;;;;;;;;;;;;;20.44;29.77;100679.53;5045638;28;19932;-59
2021/01/09 09:54:08;;;;;;;;;;;;;;;20.44;29.80;100676.75;5072011;28;19925;-59
2021/01/09 09:56:35;;;;;;;;;;;;;;;20.44;29.85;100678.69;5058403;28;20281;-59
2021/01/09 09:59:02;;;;;;;;;;;;;;;20.46;29.71;100676.47;5035600;28;19924;-59
2021/01/09 10:01:31;;;;;;;;;;;;;;;20.46;29.45;100677.28;5034663;28;19924;-60
2021/01/09 10:04:00;;;;;;;;;;;;;;;20.46;29.59;100685.59;5018942;28;19925;-59
2021/01/09 10:06:33;;;;;;;;;;;;;;;20.47;29.70;100678.13;5026773;28;19925;-59
2021/01/09 10:09:17;;;;;;;;;;;;;;;20.48;29.82;100686.16;5033630;28;19925;-60
2021/01/09 10:11:44;;;;;;;;;;;;;;;20.50;29.80;100685.91;5050702;28;19964;-60
2021/01/09 10:14:20;;;;;;;;;;;;;;;20.49;29.81;100682.28;5051155;28;20440;-58
2021/01/09 10:16:47;;;;;;;;;;;;;;;20.51;29.67;100680.09;5050732;28;19951;-59
2021/01/09 10:19:16;;;;;;;;;;;;;;;20.52;29.74;100679.00;5050984;28;19925;-60
2021/01/09 10:21:43;;;;;;;;;;;;;;;20.53;29.46;100677.88;5033299;28;20291;-59
2021/01/09 10:24:09;;;;;;;;;;;;;;;20.55;29.66;100683.16;5032996;28;19932;-58
2021/01/09 10:26:38;;;;;;;;;;;;;;;20.57;29.51;100676.25;5033482;28;19925;-59
2021/01/09 10:29:04;;;;;;;;;;;;;;;20.57;29.65;100679.00;5050409;28;19929;-58
2021/01/09 10:31:31;;;;;;;;;;;;;;;20.60;29.66;100677.66;5032718;28;20306;-58
2021/01/09 10:33:58;;;;;;;;;;;;;;;20.61;29.57;100676.53;5033452;28;19932;-59
2021/01/09 10:36:27;;;;;;;;;;;;;;;20.62;29.25;100670.72;5043240;28;20032;-58
2021/01/09 10:38:54;;;;;;;;;;;;;;;20.62;29.59;100675.44;5046399;28;19924;-59
2021/01/09 10:41:20;;;;;;;;;;;;;;;20.63;29.65;100672.41;5051168;28;19951;-58
2021/01/09 10:43:46;;;;;;;;;;;;;;;20.65;29.36;100677.66;5033333;28;19948;-58
2021/01/09 10:46:20;;;;;;;;;;;;;;;20.69;29.48;100671.31;5033947;28;19925;-60
2021/01/09 10:48:46;;;;;;;;;;;;;;;20.73;29.28;100672.44;5051320;28;19925;-59
2021/01/09 10:51:13;;;;;;;;;;;;;;;20.74;29.37;100682.41;5033261;28;19931;-59
2021/01/09 10:53:39;;;;;;;;;;;;;;;20.74;29.30;100678.81;5051189;28;19944;-59
2021/01/09 10:56:06;;;;;;;;;;;;;;;20.72;29.38;100676.31;5016355;28;19925;-58
2021/01/09 10:58:32;;;;;;;;;;;;;;;20.73;29.27;100674.38;5051238;28;20430;-59
2021/01/09 11:00:58;;;;;;;;;;;;;;;20.71;29.26;100674.66;5057406;28;19932;-59
2021/01/09 11:03:25;;;;;;;;;;;;;;;20.72;29.32;100687.41;5055107;28;19968;-61
2021/01/09 11:05:51;;;;;;;;;;;;;;;20.69;29.22;100685.16;5048988;28;19964;-61
2021/01/09 11:08:17;;;;;;;;;;;;;;;20.68;29.35;100690.97;5032774;28;20028;-62
2021/01/09 11:10:43;;;;;;;;;;;;;;;20.69;29.49;100687.09;5050833;28;19951;-61
2021/01/09 11:13:09;;;;;;;;;;;;;;;20.70;29.25;100694.31;5051123;28;19925;-60
2021/01/09 11:15:36;;;;;;;;;;;;;;;20.69;29.53;100687.94;5050660;28;19948;-58
2021/01/09 11:18:02;;;;;;;;;;;;;;;20.68;29.47;100694.56;5051298;28;19931;-58
2021/01/09 11:20:28;;;;;;;;;;;;;;;20.67;29.43;100692.06;5050778;28;19931;-59
2021/01/09 11:22:54;;;;;;;;;;;;;;;20.68;29.55;100699.28;5052635;28;19929;-59
2021/01/09 11:25:21;;;;;;;;;;;;;;;20.69;29.66;100693.47;5036457;28;19975;-58
2021/01/09 11:27:47;;;;;;;;;;;;;;;20.67;29.29;100690.16;5054819;28;19925;-58
2021/01/09 11:30:14;;;;;;;;;;;;;;;20.65;29.48;100689.56;5054159;28;19932;-58
2021/01/09 11:32:40;;;;;;;;;;;;;;;20.67;29.32;100689.31;5036722;28;19925;-59
2021/01/09 11:35:06;;;;;;;;;;;;;;;20.68;29.67;100690.97;5042648;28;19929;-60
2021/01/09 11:37:33;;;;;;;;;;;;;;;20.68;29.22;100697.34;5039891;28;19924;-59
2021/01/09 11:40:01;;;;;;;;;;;;;;;20.69;29.46;100690.72;5054383;28;19924;-59
2021/01/09 11:42:29;;;;;;;;;;;;;;;20.73;29.53;100691.00;5054006;28;19925;-61
2021/01/09 11:44:55;;;;;;;;;;;;;;;20.76;29.39;100689.63;5055044;28;20406;-59
2021/01/09 11:47:21;;;;;;;;;;;;;;;20.80;29.32;100690.72;5055399;28;19925;-60
2021/01/09 11:49:48;;;;;;;;;;;;;;;20.82;29.49;100694.06;5037022;28;20397;-61
2021/01/09 11:52:15;;;;;;;;;;;;;;;20.84;29.27;100700.16;5054791;28;20032;-59
2021/01/09 11:54:41;;;;;;;;;;;;;;;20.82;29.34;100697.66;5036358;28;20006;-60
2021/01/09 11:57:07;;;;;;;;;;;;;;;20.84;29.23;100695.44;5050947;28;20019;-60
2021/01/09 11:59:33;;;;;;;;;;;;;;;20.85;29.22;100699.06;5019069;28;20291;-60
2021/01/09 12:02:00;;;;;;;;;;;;;;;20.86;29.19;100697.94;5054173;28;20303;-61
2021/01/09 12:04:26;;;;;;;;;;;;;;;20.88;29.18;100687.44;5037126;28;19970;-60
2021/01/09 12:06:57;;;;;;;;;;;;;;;20.89;29.44;100691.88;5030235;28;20390;-60
2021/01/09 12:09:23;;;;;;;;;;;;;;;20.88;29.05;100690.19;5036904;28;19925;-60
2021/01/09 12:11:55;;;;;;;;;;;;;;;20.90;29.12;100688.00;5036376;28;20019;-60
2021/01/09 12:14:22;;;;;;;;;;;;;;;20.90;29.28;100680.50;5054633;28;19956;-60
2021/01/09 12:16:48;;;;;;;;;;;;;;;20.92;29.06;100677.47;5036419;28;20070;-59
2021/01/09 12:19:16;;;;;;;;;;;;;;;20.95;29.05;100688.00;5035755;28;19948;-61
2021/01/09 12:21:42;;;;;;;;;;;;;;;20.95;29.19;100685.25;5053305;28;19929;-61
2021/01/09 12:24:08;;;;;;;;;;;;;;;20.96;28.97;100682.19;5053786;28;19925;-60
2021/01/09 12:26:35;;;;;;;;;;;;;;;20.98;28.90;100691.06;5036319;28;19986;-59
2021/01/09 12:29:01;;;;;;;;;;;;;;;20.98;29.07;100690.22;5054333;28;19978;-60
2021/01/09 12:31:33;;;;;;;;;;;;;;;20.95;29.39;100688.84;5053265;28;20012;-60
2021/01/09 12:34:13;;;;;;;;;;;;;;;20.95;29.23;100693.56;5034594;28;19928;-60
2021/01/09 12:36:39;;;;;;;;;;;;;;;20.95;29.18;100696.31;5034074;28;20015;-60